sensor_id;sensor_type;location;lat;lon;timestamp;temperature;humidity
67358;HTU21D;54240;51.096;5.878;2023-02-01T00:02:02;5.53;118.99
67358;HTU21D;54240;51.096;5.878;2023-02-01T00:04:28;5.67;118.99
67358;HTU21D;54240;51.096;5.878;2023-02-01T00:06:54;5.65;118.99
67358;HTU21D;54240;51.096;5.878;2023-02-01T00:09:20;5.75;118.99
67358;HTU21D;54240;51.096;5.878;2023-02-01T00:11:46;5.79;118.99
67358;HTU21D;54240;51.096;5.878;2023-02-01T00:14:12;5.82;118.99
67358;HTU21D;54240;51.096;5.878;2023-02-01T00:16:39;5.79;118.99
67358;HTU21D;54240;51.096;5.878;2023-02-01T00:19:09;5.87;118.99
67358;HTU21D;54240;51.096;5.878;2023-02-01T00:21:35;5.85;118.99
67358;HTU21D;54240;51.096;5.878;2023-02-01T00:24:02;5.78;118.99
67358;HTU21D;54240;51.096;5.878;2023-02-01T00:26:36;5.72;118.99
67358;HTU21D;54240;51.096;5.878;2023-02-01T00:29:04;5.64;118.99
67358;HTU21D;54240;51.096;5.878;2023-02-01T00:31:31;5.52;118.99
67358;HTU21D;54240;51.096;5.878;2023-02-01T00:33:57;5.42;118.99
67358;HTU21D;54240;51.096;5.878;2023-02-01T00:36:23;5.36;118.99
67358;HTU21D;54240;51.096;5.878;2023-02-01T00:38:49;5.42;118.99
67358;HTU21D;54240;51.096;5.878;2023-02-01T00:41:17;5.36;118.99
67358;HTU21D;54240;51.096;5.878;2023-02-01T00:43:44;5.23;118.99
67358;HTU21D;54240;51.096;5.878;2023-02-01T00:46:12;5.16;118.99
67358;HTU21D;54240;51.096;5.878;2023-02-01T00:48:39;5.10;118.99
67358;HTU21D;54240;51.096;5.878;2023-02-01T00:51:07;5.03;118.99
67358;HTU21D;54240;51.096;5.878;2023-02-01T00:53:35;5.04;118.99
67358;HTU21D;54240;51.096;5.878;2023-02-01T00:56:01;4.94;118.99
67358;HTU21D;54240;51.096;5.878;2023-02-01T00:58:28;4.98;118.99
67358;HTU21D;54240;51.096;5.878;2023-02-01T01:01:03;4.94;118.99
67358;HTU21D;54240;51.096;5.878;2023-02-01T01:03:29;4.97;118.99
67358;HTU21D;54240;51.096;5.878;2023-02-01T01:06:00;5.00;118.99
67358;HTU21D;54240;51.096;5.878;2023-02-01T01:08:27;5.05;118.99
67358;HTU21D;54240;51.096;5.878;2023-02-01T01:10:53;5.03;118.99
67358;HTU21D;54240;51.096;5.878;2023-02-01T01:13:19;5.19;118.99
67358;HTU21D;54240;51.096;5.878;2023-02-01T01:15:45;5.17;118.99
67358;HTU21D;54240;51.096;5.878;2023-02-01T01:18:11;5.12;118.99
67358;HTU21D;54240;51.096;5.878;2023-02-01T01:20:40;5.31;118.99
67358;HTU21D;54240;51.096;5.878;2023-02-01T01:23:07;5.34;118.99
67358;HTU21D;54240;51.096;5.878;2023-02-01T01:25:40;5.27;118.99
67358;HTU21D;54240;51.096;5.878;2023-02-01T01:28:07;5.37;118.99
67358;HTU21D;54240;51.096;5.878;2023-02-01T01:30:36;5.37;118.99
67358;HTU21D;54240;51.096;5.878;2023-02-01T01:33:02;5.39;118.99
67358;HTU21D;54240;51.096;5.878;2023-02-01T01:35:29;5.46;118.99
67358;HTU21D;54240;51.096;5.878;2023-02-01T01:37:56;5.51;118.99
67358;HTU21D;54240;51.096;5.878;2023-02-01T01:40:22;5.54;118.99
67358;HTU21D;54240;51.096;5.878;2023-02-01T01:42:48;5.47;118.99
67358;HTU21D;54240;51.096;5.878;2023-02-01T01:45:33;5.56;118.99
67358;HTU21D;54240;51.096;5.878;2023-02-01T01:48:05;5.63;118.99
67358;HTU21D;54240;51.096;5.878;2023-02-01T01:50:44;5.56;118.99
67358;HTU21D;54240;51.096;5.878;2023-02-01T01:53:19;5.56;118.99
67358;HTU21D;54240;51.096;5.878;2023-02-01T01:55:47;5.60;118.99
67358;HTU21D;54240;51.096;5.878;2023-02-01T01:58:18;5.60;118.99
67358;HTU21D;54240;51.096;5.878;2023-02-01T02:00:47;5.52;118.99
67358;HTU21D;54240;51.096;5.878;2023-02-01T02:05:54;5.56;118.99
67358;HTU21D;54240;51.096;5.878;2023-02-01T02:08:24;5.66;118.99
67358;HTU21D;54240;51.096;5.878;2023-02-01T02:10:51;5.66;118.99
67358;HTU21D;54240;51.096;5.878;2023-02-01T02:13:40;5.70;118.99
67358;HTU21D;54240;51.096;5.878;2023-02-01T02:21:59;5.71;118.99
67358;HTU21D;54240;51.096;5.878;2023-02-01T02:27:17;5.68;118.99
67358;HTU21D;54240;51.096;5.878;2023-02-01T02:35:42;5.74;118.99
67358;HTU21D;54240;51.096;5.878;2023-02-01T02:43:35;5.72;118.99
67358;HTU21D;54240;51.096;5.878;2023-02-01T02:46:40;5.49;118.99
67358;HTU21D;54240;51.096;5.878;2023-02-01T02:49:36;5.60;118.99
67358;HTU21D;54240;51.096;5.878;2023-02-01T02:52:13;5.52;118.99
67358;HTU21D;54240;51.096;5.878;2023-02-01T02:55:03;5.47;118.99
67358;HTU21D;54240;51.096;5.878;2023-02-01T02:57:37;5.35;118.99
67358;HTU21D;54240;51.096;5.878;2023-02-01T03:00:29;5.45;118.99
67358;HTU21D;54240;51.096;5.878;2023-02-01T03:03:14;5.28;118.99
67358;HTU21D;54240;51.096;5.878;2023-02-01T03:05:59;5.30;118.99
67358;HTU21D;54240;51.096;5.878;2023-02-01T03:08:29;5.30;118.99
67358;HTU21D;54240;51.096;5.878;2023-02-01T03:11:06;5.15;118.99
67358;HTU21D;54240;51.096;5.878;2023-02-01T03:19:23;5.24;118.99
67358;HTU21D;54240;51.096;5.878;2023-02-01T03:21:57;5.19;118.99
67358;HTU21D;54240;51.096;5.878;2023-02-01T03:24:33;5.31;118.99
67358;HTU21D;54240;51.096;5.878;2023-02-01T03:30:44;5.27;118.99
67358;HTU21D;54240;51.096;5.878;2023-02-01T03:32:56;5.26;118.99
67358;HTU21D;54240;51.096;5.878;2023-02-01T03:40:48;5.05;118.99
67358;HTU21D;54240;51.096;5.878;2023-02-01T03:43:21;5.12;118.99
67358;HTU21D;54240;51.096;5.878;2023-02-01T03:45:55;5.08;118.99
67358;HTU21D;54240;51.096;5.878;2023-02-01T03:48:25;5.18;118.99
67358;HTU21D;54240;51.096;5.878;2023-02-01T03:50:58;5.15;118.99
67358;HTU21D;54240;51.096;5.878;2023-02-01T03:53:26;5.02;118.99
67358;HTU21D;54240;51.096;5.878;2023-02-01T03:55:55;5.00;118.99
67358;HTU21D;54240;51.096;5.878;2023-02-01T03:58:23;5.21;118.99
67358;HTU21D;54240;51.096;5.878;2023-02-01T04:00:58;5.17;118.99
67358;HTU21D;54240;51.096;5.878;2023-02-01T04:03:26;5.02;118.99
67358;HTU21D;54240;51.096;5.878;2023-02-01T04:05:53;5.16;118.99
67358;HTU21D;54240;51.096;5.878;2023-02-01T04:08:23;5.11;118.99
67358;HTU21D;54240;51.096;5.878;2023-02-01T04:10:49;5.13;118.99
67358;HTU21D;54240;51.096;5.878;2023-02-01T04:13:16;5.19;118.99
67358;HTU21D;54240;51.096;5.878;2023-02-01T04:15:41;5.26;118.99
67358;HTU21D;54240;51.096;5.878;2023-02-01T04:18:07;5.34;118.99
67358;HTU21D;54240;51.096;5.878;2023-02-01T04:20:33;5.34;118.99
67358;HTU21D;54240;51.096;5.878;2023-02-01T04:22:59;5.32;118.99
67358;HTU21D;54240;51.096;5.878;2023-02-01T04:25:28;5.39;118.99
67358;HTU21D;54240;51.096;5.878;2023-02-01T04:27:54;5.41;118.99
67358;HTU21D;54240;51.096;5.878;2023-02-01T04:30:20;5.50;118.99
67358;HTU21D;54240;51.096;5.878;2023-02-01T04:32:45;5.40;118.99
67358;HTU21D;54240;51.096;5.878;2023-02-01T04:35:12;5.53;118.99
67358;HTU21D;54240;51.096;5.878;2023-02-01T04:37:38;5.38;118.99
67358;HTU21D;54240;51.096;5.878;2023-02-01T04:40:04;5.24;118.99
67358;HTU21D;54240;51.096;5.878;2023-02-01T04:42:30;5.33;118.99
67358;HTU21D;54240;51.096;5.878;2023-02-01T04:44:56;5.12;118.99
67358;HTU21D;54240;51.096;5.878;2023-02-01T04:47:22;5.26;118.99
67358;HTU21D;54240;51.096;5.878;2023-02-01T04:49:48;5.11;118.99
67358;HTU21D;54240;51.096;5.878;2023-02-01T04:52:13;5.21;118.99
67358;HTU21D;54240;51.096;5.878;2023-02-01T04:54:39;5.20;118.99
67358;HTU21D;54240;51.096;5.878;2023-02-01T04:57:05;5.13;118.99
67358;HTU21D;54240;51.096;5.878;2023-02-01T04:59:31;5.03;118.99
67358;HTU21D;54240;51.096;5.878;2023-02-01T05:01:57;5.13;118.99
67358;HTU21D;54240;51.096;5.878;2023-02-01T05:04:23;5.08;118.99
67358;HTU21D;54240;51.096;5.878;2023-02-01T05:06:48;5.15;118.99
67358;HTU21D;54240;51.096;5.878;2023-02-01T05:09:14;5.07;118.99
67358;HTU21D;54240;51.096;5.878;2023-02-01T05:11:40;5.13;118.99
67358;HTU21D;54240;51.096;5.878;2023-02-01T05:14:25;4.88;118.99
67358;HTU21D;54240;51.096;5.878;2023-02-01T05:16:51;5.02;118.99
67358;HTU21D;54240;51.096;5.878;2023-02-01T05:19:16;5.00;118.99
67358;HTU21D;54240;51.096;5.878;2023-02-01T05:21:42;5.03;118.99
67358;HTU21D;54240;51.096;5.878;2023-02-01T05:24:08;4.86;118.99
67358;HTU21D;54240;51.096;5.878;2023-02-01T05:26:45;5.04;118.99
67358;HTU21D;54240;51.096;5.878;2023-02-01T05:29:13;5.03;118.99
67358;HTU21D;54240;51.096;5.878;2023-02-01T05:31:39;5.13;118.99
67358;HTU21D;54240;51.096;5.878;2023-02-01T05:34:06;5.09;118.99
67358;HTU21D;54240;51.096;5.878;2023-02-01T05:36:32;5.05;118.99
67358;HTU21D;54240;51.096;5.878;2023-02-01T05:38:58;5.07;118.99
67358;HTU21D;54240;51.096;5.878;2023-02-01T05:41:24;4.91;118.99
67358;HTU21D;54240;51.096;5.878;2023-02-01T05:43:50;4.96;118.99
67358;HTU21D;54240;51.096;5.878;2023-02-01T05:46:16;4.93;118.99
67358;HTU21D;54240;51.096;5.878;2023-02-01T05:48:43;4.98;118.99
67358;HTU21D;54240;51.096;5.878;2023-02-01T05:51:10;4.94;118.99
67358;HTU21D;54240;51.096;5.878;2023-02-01T05:53:36;4.91;118.99
67358;HTU21D;54240;51.096;5.878;2023-02-01T05:56:03;4.80;118.99
67358;HTU21D;54240;51.096;5.878;2023-02-01T05:58:30;5.03;118.99
67358;HTU21D;54240;51.096;5.878;2023-02-01T06:00:55;4.78;118.99
67358;HTU21D;54240;51.096;5.878;2023-02-01T06:03:21;4.88;118.99
67358;HTU21D;54240;51.096;5.878;2023-02-01T06:05:47;5.08;118.99
67358;HTU21D;54240;51.096;5.878;2023-02-01T06:08:14;4.88;118.99
67358;HTU21D;54240;51.096;5.878;2023-02-01T06:10:40;4.93;118.99
67358;HTU21D;54240;51.096;5.878;2023-02-01T06:13:06;4.94;118.99
67358;HTU21D;54240;51.096;5.878;2023-02-01T06:15:32;4.96;118.99
67358;HTU21D;54240;51.096;5.878;2023-02-01T06:17:58;5.09;118.99
67358;HTU21D;54240;51.096;5.878;2023-02-01T06:20:24;4.94;118.99
67358;HTU21D;54240;51.096;5.878;2023-02-01T06:22:50;4.82;118.99
67358;HTU21D;54240;51.096;5.878;2023-02-01T06:25:18;4.88;118.99
67358;HTU21D;54240;51.096;5.878;2023-02-01T06:27:44;4.79;118.99
67358;HTU21D;54240;51.096;5.878;2023-02-01T06:30:11;4.88;118.99
67358;HTU21D;54240;51.096;5.878;2023-02-01T06:32:40;4.76;118.99
67358;HTU21D;54240;51.096;5.878;2023-02-01T06:35:08;4.78;118.99
67358;HTU21D;54240;51.096;5.878;2023-02-01T06:37:37;4.83;118.99
67358;HTU21D;54240;51.096;5.878;2023-02-01T06:40:03;4.92;118.99
67358;HTU21D;54240;51.096;5.878;2023-02-01T06:42:30;4.76;118.99
67358;HTU21D;54240;51.096;5.878;2023-02-01T06:44:56;5.02;118.99
67358;HTU21D;54240;51.096;5.878;2023-02-01T06:47:22;4.97;118.99
67358;HTU21D;54240;51.096;5.878;2023-02-01T06:49:47;4.88;118.99
67358;HTU21D;54240;51.096;5.878;2023-02-01T06:52:13;4.96;118.99
67358;HTU21D;54240;51.096;5.878;2023-02-01T06:54:39;5.03;118.99
67358;HTU21D;54240;51.096;5.878;2023-02-01T06:57:05;4.97;118.99
67358;HTU21D;54240;51.096;5.878;2023-02-01T06:59:31;4.92;118.99
67358;HTU21D;54240;51.096;5.878;2023-02-01T07:01:57;5.15;118.99
67358;HTU21D;54240;51.096;5.878;2023-02-01T07:04:22;5.08;118.99
67358;HTU21D;54240;51.096;5.878;2023-02-01T07:06:48;4.97;118.99
67358;HTU21D;54240;51.096;5.878;2023-02-01T07:09:14;5.15;118.99
67358;HTU21D;54240;51.096;5.878;2023-02-01T07:11:40;5.17;118.99
67358;HTU21D;54240;51.096;5.878;2023-02-01T07:14:10;5.11;118.99
67358;HTU21D;54240;51.096;5.878;2023-02-01T07:16:36;5.35;118.99
67358;HTU21D;54240;51.096;5.878;2023-02-01T07:19:02;5.19;118.99
67358;HTU21D;54240;51.096;5.878;2023-02-01T07:21:28;5.32;118.99
67358;HTU21D;54240;51.096;5.878;2023-02-01T07:23:54;5.42;118.99
67358;HTU21D;54240;51.096;5.878;2023-02-01T07:26:21;5.32;118.99
67358;HTU21D;54240;51.096;5.878;2023-02-01T07:28:47;5.45;118.99
67358;HTU21D;54240;51.096;5.878;2023-02-01T07:31:16;5.23;118.99
67358;HTU21D;54240;51.096;5.878;2023-02-01T07:33:44;5.26;118.99
67358;HTU21D;54240;51.096;5.878;2023-02-01T07:36:15;5.22;118.99
67358;HTU21D;54240;51.096;5.878;2023-02-01T07:38:42;5.43;118.99
67358;HTU21D;54240;51.096;5.878;2023-02-01T07:41:08;5.57;118.99
67358;HTU21D;54240;51.096;5.878;2023-02-01T07:43:35;5.20;118.99
67358;HTU21D;54240;51.096;5.878;2023-02-01T07:46:02;5.20;118.99
67358;HTU21D;54240;51.096;5.878;2023-02-01T07:48:29;5.25;118.99
67358;HTU21D;54240;51.096;5.878;2023-02-01T07:51:01;5.16;118.99
67358;HTU21D;54240;51.096;5.878;2023-02-01T07:53:29;5.12;118.99
67358;HTU21D;54240;51.096;5.878;2023-02-01T07:55:56;5.02;118.99
67358;HTU21D;54240;51.096;5.878;2023-02-01T07:58:22;4.92;118.99
67358;HTU21D;54240;51.096;5.878;2023-02-01T08:00:48;5.11;118.99
67358;HTU21D;54240;51.096;5.878;2023-02-01T08:03:33;5.10;118.99
67358;HTU21D;54240;51.096;5.878;2023-02-01T08:05:59;5.25;118.99
67358;HTU21D;54240;51.096;5.878;2023-02-01T08:08:25;5.40;118.99
67358;HTU21D;54240;51.096;5.878;2023-02-01T08:10:51;5.53;118.99
67358;HTU21D;54240;51.096;5.878;2023-02-01T08:13:17;5.38;118.99
67358;HTU21D;54240;51.096;5.878;2023-02-01T08:15:42;5.41;118.99
67358;HTU21D;54240;51.096;5.878;2023-02-01T08:18:08;5.46;118.99
67358;HTU21D;54240;51.096;5.878;2023-02-01T08:20:35;5.61;118.99
67358;HTU21D;54240;51.096;5.878;2023-02-01T08:23:02;5.49;118.99
67358;HTU21D;54240;51.096;5.878;2023-02-01T08:25:28;5.64;118.99
67358;HTU21D;54240;51.096;5.878;2023-02-01T08:27:54;5.64;118.99
67358;HTU21D;54240;51.096;5.878;2023-02-01T08:30:21;5.84;118.99
67358;HTU21D;54240;51.096;5.878;2023-02-01T08:32:47;6.04;118.99
67358;HTU21D;54240;51.096;5.878;2023-02-01T08:35:13;6.15;118.99
67358;HTU21D;54240;51.096;5.878;2023-02-01T08:37:39;6.10;118.99
67358;HTU21D;54240;51.096;5.878;2023-02-01T08:40:06;6.02;118.99
67358;HTU21D;54240;51.096;5.878;2023-02-01T08:42:32;6.02;118.99
67358;HTU21D;54240;51.096;5.878;2023-02-01T08:45:18;6.07;118.99
67358;HTU21D;54240;51.096;5.878;2023-02-01T08:47:47;6.10;118.99
67358;HTU21D;54240;51.096;5.878;2023-02-01T08:50:14;6.23;118.99
67358;HTU21D;54240;51.096;5.878;2023-02-01T08:52:40;6.23;118.99
67358;HTU21D;54240;51.096;5.878;2023-02-01T08:55:06;6.14;118.99
67358;HTU21D;54240;51.096;5.878;2023-02-01T08:57:33;6.12;118.99
67358;HTU21D;54240;51.096;5.878;2023-02-01T08:59:59;6.16;118.99
67358;HTU21D;54240;51.096;5.878;2023-02-01T09:02:25;6.10;118.99
67358;HTU21D;54240;51.096;5.878;2023-02-01T09:04:52;6.06;118.99
67358;HTU21D;54240;51.096;5.878;2023-02-01T09:07:18;6.08;118.99
67358;HTU21D;54240;51.096;5.878;2023-02-01T09:09:45;6.22;118.99
67358;HTU21D;54240;51.096;5.878;2023-02-01T09:12:11;6.30;118.99
67358;HTU21D;54240;51.096;5.878;2023-02-01T09:14:37;6.35;118.99
67358;HTU21D;54240;51.096;5.878;2023-02-01T09:17:03;6.59;118.99
67358;HTU21D;54240;51.096;5.878;2023-02-01T09:19:31;6.46;118.99
67358;HTU21D;54240;51.096;5.878;2023-02-01T09:21:57;6.51;118.99
67358;HTU21D;54240;51.096;5.878;2023-02-01T09:24:23;6.69;118.99
67358;HTU21D;54240;51.096;5.878;2023-02-01T09:26:49;6.78;118.99
67358;HTU21D;54240;51.096;5.878;2023-02-01T09:29:16;7.04;118.99
67358;HTU21D;54240;51.096;5.878;2023-02-01T09:31:41;7.00;118.99
67358;HTU21D;54240;51.096;5.878;2023-02-01T09:34:08;6.85;118.99
67358;HTU21D;54240;51.096;5.878;2023-02-01T09:36:34;6.88;102.98
67358;HTU21D;54240;51.096;5.878;2023-02-01T09:39:01;6.88;118.99
67358;HTU21D;54240;51.096;5.878;2023-02-01T09:41:32;6.78;94.23
67358;HTU21D;54240;51.096;5.878;2023-02-01T09:46:38;7.07;-6.00
67358;HTU21D;54240;51.096;5.878;2023-02-01T09:49:30;7.19;-6.00
67358;HTU21D;54240;51.096;5.878;2023-02-01T09:51:59;7.30;-6.00
67358;HTU21D;54240;51.096;5.878;2023-02-01T09:54:41;7.59;-6.00
67358;HTU21D;54240;51.096;5.878;2023-02-01T09:57:32;7.75;-6.00
67358;HTU21D;54240;51.096;5.878;2023-02-01T10:00:16;7.99;-6.00
67358;HTU21D;54240;51.096;5.878;2023-02-01T10:02:43;8.30;-6.00
67358;HTU21D;54240;51.096;5.878;2023-02-01T10:05:16;8.52;-6.00
67358;HTU21D;54240;51.096;5.878;2023-02-01T10:10:35;8.12;-6.00
67358;HTU21D;54240;51.096;5.878;2023-02-01T10:27:12;8.81;-6.00
67358;HTU21D;54240;51.096;5.878;2023-02-01T10:29:45;8.65;-6.00
67358;HTU21D;54240;51.096;5.878;2023-02-01T10:32:33;8.71;-6.00
67358;HTU21D;54240;51.096;5.878;2023-02-01T10:35:11;9.09;-6.00
67358;HTU21D;54240;51.096;5.878;2023-02-01T10:37:41;9.30;-6.00
67358;HTU21D;54240;51.096;5.878;2023-02-01T10:40:26;8.66;-6.00
67358;HTU21D;54240;51.096;5.878;2023-02-01T10:42:59;9.34;-6.00
67358;HTU21D;54240;51.096;5.878;2023-02-01T10:45:31;9.41;-6.00
67358;HTU21D;54240;51.096;5.878;2023-02-01T10:48:00;9.60;-6.00
67358;HTU21D;54240;51.096;5.878;2023-02-01T10:53:06;9.26;-6.00
67358;HTU21D;54240;51.096;5.878;2023-02-01T10:58:31;9.22;-6.00
67358;HTU21D;54240;51.096;5.878;2023-02-01T11:01:02;9.11;-6.00
67358;HTU21D;54240;51.096;5.878;2023-02-01T11:08:51;8.97;-6.00
67358;HTU21D;54240;51.096;5.878;2023-02-01T11:11:18;8.85;-6.00
67358;HTU21D;54240;51.096;5.878;2023-02-01T11:13:44;9.05;-6.00
67358;HTU21D;54240;51.096;5.878;2023-02-01T11:16:13;9.35;-6.00
67358;HTU21D;54240;51.096;5.878;2023-02-01T11:18:40;9.08;-6.00
67358;HTU21D;54240;51.096;5.878;2023-02-01T11:21:10;8.80;-6.00
67358;HTU21D;54240;51.096;5.878;2023-02-01T11:23:43;8.78;-6.00
67358;HTU21D;54240;51.096;5.878;2023-02-01T11:26:20;8.64;-6.00
67358;HTU21D;54240;51.096;5.878;2023-02-01T11:28:54;8.55;-6.00
67358;HTU21D;54240;51.096;5.878;2023-02-01T11:31:24;8.37;-6.00
67358;HTU21D;54240;51.096;5.878;2023-02-01T11:33:58;8.39;-6.00
67358;HTU21D;54240;51.096;5.878;2023-02-01T11:36:31;8.36;-6.00
67358;HTU21D;54240;51.096;5.878;2023-02-01T11:44:46;8.94;-6.00
67358;HTU21D;54240;51.096;5.878;2023-02-01T11:47:19;9.30;-6.00
67358;HTU21D;54240;51.096;5.878;2023-02-01T11:49:49;9.56;-6.00
67358;HTU21D;54240;51.096;5.878;2023-02-01T11:55:17;10.05;-6.00
67358;HTU21D;54240;51.096;5.878;2023-02-01T12:06:50;9.36;-6.00
67358;HTU21D;54240;51.096;5.878;2023-02-01T12:12:17;8.91;-6.00
67358;HTU21D;54240;51.096;5.878;2023-02-01T12:26:05;9.12;-6.00
67358;HTU21D;54240;51.096;5.878;2023-02-01T12:40:23;8.85;-6.00
67358;HTU21D;54240;51.096;5.878;2023-02-01T12:45:40;8.91;-6.00
67358;HTU21D;54240;51.096;5.878;2023-02-01T12:50:43;8.89;-6.00
67358;HTU21D;54240;51.096;5.878;2023-02-01T12:53:19;8.81;-6.00
67358;HTU21D;54240;51.096;5.878;2023-02-01T12:55:55;8.92;-6.00
67358;HTU21D;54240;51.096;5.878;2023-02-01T12:58:31;8.76;-6.00
67358;HTU21D;54240;51.096;5.878;2023-02-01T13:01:07;8.82;-6.00
67358;HTU21D;54240;51.096;5.878;2023-02-01T13:03:56;8.75;-6.00
67358;HTU21D;54240;51.096;5.878;2023-02-01T13:06:34;8.79;-6.00
67358;HTU21D;54240;51.096;5.878;2023-02-01T13:11:43;8.75;-6.00
67358;HTU21D;54240;51.096;5.878;2023-02-01T13:16:49;9.09;-6.00
67358;HTU21D;54240;51.096;5.878;2023-02-01T13:19:48;8.97;-6.00
67358;HTU21D;54240;51.096;5.878;2023-02-01T13:22:34;8.89;-6.00
67358;HTU21D;54240;51.096;5.878;2023-02-01T13:25:13;8.72;-6.00
67358;HTU21D;54240;51.096;5.878;2023-02-01T13:27:39;8.90;-6.00
67358;HTU21D;54240;51.096;5.878;2023-02-01T13:38:56;8.83;-6.00
67358;HTU21D;54240;51.096;5.878;2023-02-01T13:44:04;8.89;-6.00
67358;HTU21D;54240;51.096;5.878;2023-02-01T13:46:39;9.06;-6.00
67358;HTU21D;54240;51.096;5.878;2023-02-01T13:49:21;8.95;-6.00
67358;HTU21D;54240;51.096;5.878;2023-02-01T13:51:51;8.97;-6.00
67358;HTU21D;54240;51.096;5.878;2023-02-01T13:54:31;9.17;-6.00
67358;HTU21D;54240;51.096;5.878;2023-02-01T13:57:03;9.07;-6.00
67358;HTU21D;54240;51.096;5.878;2023-02-01T14:07:35;9.03;-6.00
67358;HTU21D;54240;51.096;5.878;2023-02-01T14:13:13;9.11;-6.00
67358;HTU21D;54240;51.096;5.878;2023-02-01T14:15:39;9.35;-6.00
67358;HTU21D;54240;51.096;5.878;2023-02-01T14:26:48;9.04;-6.00
67358;HTU21D;54240;51.096;5.878;2023-02-01T14:31:59;9.17;-6.00
67358;HTU21D;54240;51.096;5.878;2023-02-01T14:34:30;9.01;-6.00
67358;HTU21D;54240;51.096;5.878;2023-02-01T14:37:01;8.98;-6.00
67358;HTU21D;54240;51.096;5.878;2023-02-01T14:39:55;9.09;-6.00
67358;HTU21D;54240;51.096;5.878;2023-02-01T14:42:44;9.20;-6.00
67358;HTU21D;54240;51.096;5.878;2023-02-01T14:58:55;8.91;-6.00
67358;HTU21D;54240;51.096;5.878;2023-02-01T15:01:29;8.93;-6.00
67358;HTU21D;54240;51.096;5.878;2023-02-01T15:09:14;8.80;-6.00
67358;HTU21D;54240;51.096;5.878;2023-02-01T15:14:40;8.77;-6.00
67358;HTU21D;54240;51.096;5.878;2023-02-01T15:17:27;8.75;-6.00
67358;HTU21D;54240;51.096;5.878;2023-02-01T15:20:02;8.85;-6.00
67358;HTU21D;54240;51.096;5.878;2023-02-01T15:22:30;8.85;-6.00
67358;HTU21D;54240;51.096;5.878;2023-02-01T15:24:59;8.70;-6.00
67358;HTU21D;54240;51.096;5.878;2023-02-01T15:27:29;8.86;-6.00
67358;HTU21D;54240;51.096;5.878;2023-02-01T15:30:08;8.71;-6.00
67358;HTU21D;54240;51.096;5.878;2023-02-01T15:32:38;8.74;-6.00
67358;HTU21D;54240;51.096;5.878;2023-02-01T15:35:30;8.68;-6.00
67358;HTU21D;54240;51.096;5.878;2023-02-01T15:37:51;8.62;-6.00
67358;HTU21D;54240;51.096;5.878;2023-02-01T15:40:20;8.65;-6.00
67358;HTU21D;54240;51.096;5.878;2023-02-01T15:42:54;8.57;-6.00
67358;HTU21D;54240;51.096;5.878;2023-02-01T15:45:26;8.76;-6.00
67358;HTU21D;54240;51.096;5.878;2023-02-01T15:47:55;8.63;-6.00
67358;HTU21D;54240;51.096;5.878;2023-02-01T15:50:22;8.55;-6.00
67358;HTU21D;54240;51.096;5.878;2023-02-01T15:52:51;8.61;-6.00
67358;HTU21D;54240;51.096;5.878;2023-02-01T15:57:46;8.60;-6.00
67358;HTU21D;54240;51.096;5.878;2023-02-01T16:00:25;8.48;-6.00
67358;HTU21D;54240;51.096;5.878;2023-02-01T16:03:01;8.47;-6.00
67358;HTU21D;54240;51.096;5.878;2023-02-01T16:05:37;8.26;-6.00
67358;HTU21D;54240;51.096;5.878;2023-02-01T16:08:17;8.20;-6.00
67358;HTU21D;54240;51.096;5.878;2023-02-01T16:10:49;8.01;-6.00
67358;HTU21D;54240;51.096;5.878;2023-02-01T16:13:16;8.20;-6.00
67358;HTU21D;54240;51.096;5.878;2023-02-01T16:15:43;8.14;-6.00
67358;HTU21D;54240;51.096;5.878;2023-02-01T16:18:11;8.22;-6.00
67358;HTU21D;54240;51.096;5.878;2023-02-01T16:20:39;8.30;-6.00
67358;HTU21D;54240;51.096;5.878;2023-02-01T16:23:06;8.42;-6.00
67358;HTU21D;54240;51.096;5.878;2023-02-01T16:25:32;8.44;-6.00
67358;HTU21D;54240;51.096;5.878;2023-02-01T16:27:58;8.59;-6.00
67358;HTU21D;54240;51.096;5.878;2023-02-01T16:30:25;8.61;-6.00
67358;HTU21D;54240;51.096;5.878;2023-02-01T16:32:56;8.38;-6.00
67358;HTU21D;54240;51.096;5.878;2023-02-01T16:35:36;8.45;-6.00
67358;HTU21D;54240;51.096;5.878;2023-02-01T16:38:05;8.43;-6.00
67358;HTU21D;54240;51.096;5.878;2023-02-01T16:40:41;8.32;-6.00
67358;HTU21D;54240;51.096;5.878;2023-02-01T16:43:22;8.28;-6.00
67358;HTU21D;54240;51.096;5.878;2023-02-01T16:45:49;8.39;-6.00
67358;HTU21D;54240;51.096;5.878;2023-02-01T16:48:25;8.30;-6.00
67358;HTU21D;54240;51.096;5.878;2023-02-01T16:50:59;8.46;-6.00
67358;HTU21D;54240;51.096;5.878;2023-02-01T16:53:28;8.36;-6.00
67358;HTU21D;54240;51.096;5.878;2023-02-01T16:55:55;8.22;-6.00
67358;HTU21D;54240;51.096;5.878;2023-02-01T16:58:24;8.29;-6.00
67358;HTU21D;54240;51.096;5.878;2023-02-01T17:00:51;8.13;-6.00
67358;HTU21D;54240;51.096;5.878;2023-02-01T17:03:18;8.08;-6.00
67358;HTU21D;54240;51.096;5.878;2023-02-01T17:05:56;7.99;-6.00
67358;HTU21D;54240;51.096;5.878;2023-02-01T17:08:35;7.96;-6.00
67358;HTU21D;54240;51.096;5.878;2023-02-01T17:11:02;8.02;-6.00
67358;HTU21D;54240;51.096;5.878;2023-02-01T17:13:28;8.13;-6.00
67358;HTU21D;54240;51.096;5.878;2023-02-01T17:16:04;8.06;-6.00
67358;HTU21D;54240;51.096;5.878;2023-02-01T17:18:33;8.18;-6.00
67358;HTU21D;54240;51.096;5.878;2023-02-01T17:21:02;8.07;-6.00
67358;HTU21D;54240;51.096;5.878;2023-02-01T17:23:30;8.18;-6.00
67358;HTU21D;54240;51.096;5.878;2023-02-01T17:25:57;8.13;-6.00
67358;HTU21D;54240;51.096;5.878;2023-02-01T17:28:23;8.15;-6.00
67358;HTU21D;54240;51.096;5.878;2023-02-01T17:30:50;8.11;-6.00
67358;HTU21D;54240;51.096;5.878;2023-02-01T17:33:19;8.28;-6.00
67358;HTU21D;54240;51.096;5.878;2023-02-01T17:35:45;8.23;-6.00
67358;HTU21D;54240;51.096;5.878;2023-02-01T17:38:13;8.23;-6.00
67358;HTU21D;54240;51.096;5.878;2023-02-01T17:40:39;8.34;-6.00
67358;HTU21D;54240;51.096;5.878;2023-02-01T17:43:05;8.38;-6.00
67358;HTU21D;54240;51.096;5.878;2023-02-01T17:45:37;8.27;-6.00
67358;HTU21D;54240;51.096;5.878;2023-02-01T17:48:06;8.32;-6.00
67358;HTU21D;54240;51.096;5.878;2023-02-01T17:50:36;8.28;-6.00
67358;HTU21D;54240;51.096;5.878;2023-02-01T17:53:03;8.24;-6.00
67358;HTU21D;54240;51.096;5.878;2023-02-01T17:55:34;8.27;-6.00
67358;HTU21D;54240;51.096;5.878;2023-02-01T17:58:00;8.30;-6.00
67358;HTU21D;54240;51.096;5.878;2023-02-01T18:00:26;8.29;-6.00
67358;HTU21D;54240;51.096;5.878;2023-02-01T18:02:52;8.28;-6.00
67358;HTU21D;54240;51.096;5.878;2023-02-01T18:05:40;8.21;-6.00
67358;HTU21D;54240;51.096;5.878;2023-02-01T18:08:08;8.19;-6.00
67358;HTU21D;54240;51.096;5.878;2023-02-01T18:10:35;8.17;-6.00
67358;HTU21D;54240;51.096;5.878;2023-02-01T18:13:03;8.20;-6.00
67358;HTU21D;54240;51.096;5.878;2023-02-01T18:15:30;8.17;-6.00
67358;HTU21D;54240;51.096;5.878;2023-02-01T18:17:57;8.23;-6.00
67358;HTU21D;54240;51.096;5.878;2023-02-01T18:20:25;8.27;-6.00
67358;HTU21D;54240;51.096;5.878;2023-02-01T18:22:52;8.29;-6.00
67358;HTU21D;54240;51.096;5.878;2023-02-01T18:25:24;8.31;-6.00
67358;HTU21D;54240;51.096;5.878;2023-02-01T18:27:52;8.32;-6.00
67358;HTU21D;54240;51.096;5.878;2023-02-01T18:30:21;8.23;-6.00
67358;HTU21D;54240;51.096;5.878;2023-02-01T18:32:47;8.20;-6.00
67358;HTU21D;54240;51.096;5.878;2023-02-01T18:35:30;8.14;-6.00
67358;HTU21D;54240;51.096;5.878;2023-02-01T18:37:57;8.30;-6.00
67358;HTU21D;54240;51.096;5.878;2023-02-01T18:40:31;8.29;-6.00